createdAt,value
2018-11-03T00:01:51.506Z,4.32
2018-11-03T00:05:07.939Z,4.28
2018-11-03T00:08:12.771Z,4.19
2018-11-03T00:11:17.641Z,4.17
2018-11-03T00:14:41.350Z,4.22
2018-11-03T00:18:05.185Z,4.21
2018-11-03T00:21:21.525Z,4.33
2018-11-03T00:24:37.590Z,4.34
2018-11-03T00:27:54.281Z,4.36
2018-11-03T00:30:59.132Z,4.45
2018-11-03T00:34:22.861Z,4.38
2018-11-03T00:38:01.125Z,4.46
2018-11-03T00:41:02.355Z,4.38
2018-11-03T00:44:18.120Z,4.42
2018-11-03T00:47:34.011Z,4.38
2018-11-03T00:50:49.848Z,4.34
2018-11-03T00:53:54.823Z,4.38
2018-11-03T00:57:18.615Z,4.21
2018-11-03T01:00:42.456Z,4.09
2018-11-03T01:03:58.682Z,4.27
2018-11-03T01:07:15.180Z,4.21
2018-11-03T01:10:20.066Z,4.06
2018-11-03T01:13:24.922Z,4.20
2018-11-03T01:16:48.634Z,4.13
2018-11-03T01:20:04.356Z,4.20
2018-11-03T01:23:20.310Z,3.92
2018-11-03T01:26:36.505Z,3.90
2018-11-03T01:29:53.137Z,3.97
2018-11-03T01:33:09.512Z,3.88
2018-11-03T01:36:25.987Z,3.88
2018-11-03T01:39:41.791Z,3.56
2018-11-03T01:42:58.527Z,3.57
2018-11-03T01:46:14.420Z,3.52
2018-11-03T01:49:30.306Z,3.64
2018-11-03T01:52:46.560Z,3.56
2018-11-03T01:55:51.788Z,3.59
2018-11-03T01:59:15.522Z,3.60
2018-11-03T02:02:53.586Z,3.58
2018-11-03T02:05:55.778Z,3.53
2018-11-03T02:09:12.058Z,3.57
2018-11-03T02:12:27.818Z,3.41
2018-11-03T02:15:51.931Z,3.26
2018-11-03T02:19:29.882Z,3.38
2018-11-03T02:22:20.560Z,3.40
2018-11-03T02:25:58.384Z,3.36
2018-11-03T02:29:07.972Z,3.54
2018-11-03T02:32:26.868Z,3.39
2018-11-03T02:35:17.840Z,3.43
2018-11-03T02:38:41.558Z,3.46
2018-11-03T02:41:57.327Z,3.63
2018-11-03T02:45:13.748Z,3.65
2018-11-03T02:48:30.002Z,3.41
2018-11-03T02:51:46.622Z,3.44
2018-11-03T02:54:51.648Z,3.18
2018-11-03T02:57:56.561Z,3.01
2018-11-03T03:01:13.050Z,3.00
2018-11-03T03:04:06.515Z,2.91
2018-11-03T03:07:11.318Z,2.76
2018-11-03T03:10:35.037Z,2.82
2018-11-03T03:13:51.360Z,2.74
2018-11-03T03:17:14.786Z,2.70
2018-11-03T03:20:38.523Z,2.62
2018-11-03T03:23:54.458Z,2.58
2018-11-03T03:27:10.457Z,2.46
2018-11-03T03:30:26.283Z,2.61
2018-11-03T03:33:43.013Z,2.72
2018-11-03T03:36:54.907Z,2.55
2018-11-03T03:39:59.781Z,2.54
2018-11-03T03:43:37.586Z,2.54
2018-11-03T03:46:47.253Z,2.54
2018-11-03T03:50:06.207Z,2.68
2018-11-03T03:53:15.807Z,2.69
2018-11-03T03:56:20.643Z,3.03
2018-11-03T03:59:44.468Z,2.93
2018-11-03T04:03:08.163Z,2.74
2018-11-03T04:06:24.661Z,2.72
2018-11-03T04:09:29.582Z,2.81
2018-11-03T04:12:53.337Z,2.71
2018-11-03T04:16:09.107Z,2.67
2018-11-03T04:19:25.578Z,2.56
2018-11-03T04:22:42.055Z,2.73
2018-11-03T04:25:46.928Z,2.45
2018-11-03T04:29:10.632Z,2.29
2018-11-03T04:32:26.707Z,2.25
2018-11-03T04:35:42.357Z,2.28
2018-11-03T04:38:58.062Z,2.10
2018-11-03T04:42:13.778Z,2.00
2018-11-03T04:45:30.167Z,2.14
2018-11-03T04:48:46.347Z,1.97
2018-11-03T04:52:02.170Z,2.03
2018-11-03T04:55:18.604Z,2.02
2018-11-03T04:58:23.408Z,1.93
2018-11-03T05:01:47.191Z,1.95
2018-11-03T05:05:22.683Z,1.86
2018-11-03T05:08:15.760Z,2.11
2018-11-03T05:11:53.768Z,2.10
2018-11-03T05:14:55.977Z,1.99
2018-11-03T05:18:12.384Z,2.02
2018-11-03T05:21:28.245Z,2.28
2018-11-03T05:24:44.281Z,2.22
2018-11-03T05:27:59.938Z,2.31
2018-11-03T05:31:16.042Z,2.34
2018-11-03T05:34:31.660Z,2.29
2018-11-03T05:37:48.272Z,2.58
2018-11-03T05:41:04.250Z,2.41
2018-11-03T05:44:20.489Z,2.42
2018-11-03T05:47:25.328Z,2.45
2018-11-03T05:50:30.185Z,2.44
2018-11-03T05:53:35.030Z,2.42
2018-11-03T05:56:58.748Z,2.49
2018-11-03T06:00:14.965Z,2.40
2018-11-03T06:03:19.814Z,2.40
2018-11-03T06:06:43.599Z,2.30
2018-11-03T06:10:07.533Z,2.21
2018-11-03T06:13:23.266Z,2.20
2018-11-03T06:16:39.838Z,2.13
2018-11-03T06:19:56.581Z,2.65
2018-11-03T06:23:20.408Z,2.49
2018-11-03T06:26:25.187Z,2.55
2018-11-03T06:29:41.067Z,2.38
2018-11-03T06:32:57.607Z,2.27
2018-11-03T06:36:14.051Z,2.35
2018-11-03T06:42:41.936Z,2.37
2018-11-03T06:45:57.778Z,2.57
2018-11-03T06:49:20.298Z,2.57
2018-11-03T06:52:36.183Z,2.64
2018-11-03T06:55:51.958Z,2.78
2018-11-03T06:59:07.768Z,2.90
2018-11-03T07:02:24.264Z,3.15
2018-11-03T07:05:40.460Z,3.14
2018-11-03T07:08:56.875Z,3.28
2018-11-03T07:12:13.057Z,3.34
2018-11-03T07:15:28.839Z,3.36
2018-11-03T07:18:44.697Z,3.55
2018-11-03T07:22:01.420Z,3.60
2018-11-03T07:25:17.879Z,3.69
2018-11-03T07:28:22.785Z,3.87
2018-11-03T07:31:27.614Z,4.00
2018-11-03T07:34:51.401Z,4.16
2018-11-03T07:38:15.186Z,4.26
2018-11-03T07:41:31.837Z,4.29
2018-11-03T07:44:36.629Z,4.38
2018-11-03T07:47:41.550Z,4.58
2018-11-03T07:50:46.389Z,4.52
2018-11-03T07:54:10.211Z,4.66
2018-11-03T07:57:15.035Z,4.69
2018-11-03T08:00:38.827Z,4.78
2018-11-03T08:04:02.242Z,4.67
2018-11-03T08:07:25.950Z,4.84
2018-11-03T08:10:42.339Z,4.80
2018-11-03T08:14:01.395Z,4.96
2018-11-03T08:23:44.740Z,5.17
2018-11-03T08:27:00.480Z,5.10
2018-11-03T08:30:16.274Z,5.20
2018-11-03T08:33:32.072Z,5.28
2018-11-03T08:36:48.576Z,5.45
2018-11-03T08:40:04.559Z,5.43
2018-11-03T08:43:20.537Z,5.43
2018-11-03T08:46:37.110Z,5.56
2018-11-03T08:49:52.978Z,5.55
2018-11-03T08:53:09.666Z,5.66
2018-11-03T08:56:25.930Z,5.71
2018-11-03T08:59:42.075Z,5.77
2018-11-03T09:02:57.757Z,5.81
2018-11-03T09:06:14.376Z,5.66
2018-11-03T09:09:30.327Z,5.63
2018-11-03T09:12:46.152Z,5.72
2018-11-03T09:16:02.680Z,5.74
2018-11-03T09:19:18.367Z,5.70
2018-11-03T09:22:35.407Z,5.81
2018-11-03T09:25:52.012Z,5.83
2018-11-03T09:29:08.404Z,5.90
2018-11-03T09:32:24.648Z,5.86
2018-11-03T09:35:40.565Z,5.98
2018-11-03T09:38:57.088Z,5.98
2018-11-03T09:42:19.235Z,5.94
2018-11-03T09:45:39.965Z,6.10
2018-11-03T09:48:41.910Z,6.12
2018-11-03T09:51:47.040Z,6.16
2018-11-03T09:54:51.956Z,6.09
2018-11-03T09:57:56.814Z,6.10
2018-11-03T10:04:39.531Z,5.98
2018-11-03T10:07:41.160Z,6.10
2018-11-03T10:10:57.033Z,6.09
2018-11-03T10:14:12.874Z,6.13
2018-11-03T10:17:28.637Z,6.17
2018-11-03T10:20:45.229Z,6.15
2018-11-03T10:24:01.584Z,6.14
2018-11-03T10:27:06.473Z,6.12
2018-11-03T10:30:12.529Z,6.17
2018-11-03T10:33:36.376Z,6.17
2018-11-03T10:37:11.947Z,6.17
2018-11-03T10:40:17.833Z,6.16
2018-11-03T10:43:34.337Z,6.16
2018-11-03T10:46:51.083Z,6.17
2018-11-03T10:50:06.811Z,6.19
2018-11-03T10:53:23.020Z,6.17
2018-11-03T10:56:38.776Z,6.19
2018-11-03T10:59:43.674Z,6.15
2018-11-03T11:03:26.026Z,6.22
2018-11-03T11:07:08.353Z,6.23
2018-11-03T11:10:43.363Z,6.30
2018-11-03T11:13:59.430Z,6.21
2018-11-03T11:17:15.374Z,6.17
2018-11-03T11:20:31.247Z,6.24
2018-11-03T11:23:47.024Z,6.26
2018-11-03T11:27:02.752Z,6.28
2018-11-03T11:30:19.312Z,6.31
2018-11-03T11:33:35.333Z,6.38
2018-11-03T11:36:51.439Z,6.38
2018-11-03T11:40:07.567Z,6.35
2018-11-03T11:43:23.783Z,6.34
2018-11-03T11:46:39.626Z,6.36
2018-11-03T11:49:55.587Z,6.42
2018-11-03T11:53:11.336Z,6.44
2018-11-03T11:56:27.582Z,6.43
2018-11-03T11:59:43.853Z,6.39
2018-11-03T12:03:00.097Z,6.36
2018-11-03T12:06:15.612Z,6.37
2018-11-03T12:09:31.648Z,6.40
2018-11-03T12:12:47.363Z,6.36
2018-11-03T12:16:03.174Z,6.49
2018-11-03T12:19:19.832Z,6.54
2018-11-03T12:22:25.174Z,6.51
2018-11-03T12:25:49.042Z,6.53
2018-11-03T12:29:12.601Z,6.48
2018-11-03T12:32:28.923Z,6.42
2018-11-03T12:35:45.369Z,6.39
2018-11-03T12:39:01.577Z,6.49
2018-11-03T12:42:06.784Z,6.48
2018-11-03T12:45:30.484Z,6.43
2018-11-03T12:48:46.637Z,6.46
2018-11-03T12:52:02.860Z,6.43
2018-11-03T12:55:18.670Z,6.48
2018-11-03T12:58:34.654Z,6.50
2018-11-03T13:01:50.586Z,6.49
2018-11-03T13:05:06.285Z,6.53
2018-11-03T13:08:11.149Z,6.39
2018-11-03T13:11:16.198Z,6.54
2018-11-03T13:14:21.022Z,6.55
2018-11-03T13:17:44.705Z,6.42
2018-11-03T13:21:08.421Z,6.42
2018-11-03T13:24:24.947Z,6.59
2018-11-03T13:27:44.050Z,6.70
2018-11-03T13:30:34.744Z,6.55
2018-11-03T13:34:09.826Z,6.44
2018-11-03T13:37:14.672Z,6.42
2018-11-03T13:40:31.143Z,6.38
2018-11-03T13:43:46.930Z,6.39
2018-11-03T13:47:02.764Z,6.37
2018-11-03T13:50:26.702Z,6.50
2018-11-03T13:53:50.411Z,6.38
2018-11-03T13:57:06.874Z,6.42
2018-11-03T14:00:22.840Z,6.50
2018-11-03T14:03:39.553Z,6.38
2018-11-03T14:06:56.211Z,6.63
2018-11-03T14:10:14.532Z,6.59
2018-11-03T14:13:30.877Z,6.46
2018-11-03T14:16:47.515Z,6.51
2018-11-03T14:20:03.368Z,6.31
2018-11-03T14:23:20.068Z,6.23
2018-11-03T14:26:36.241Z,6.15
2018-11-03T14:29:52.580Z,6.13
2018-11-03T14:33:10.635Z,6.08
2018-11-03T14:36:27.072Z,5.97
2018-11-03T14:39:42.663Z,6.10
2018-11-03T14:42:59.364Z,6.01
2018-11-03T14:46:16.078Z,5.92
2018-11-03T14:49:31.805Z,5.91
2018-11-03T14:52:47.834Z,6.00
2018-11-03T14:55:53.612Z,5.87
2018-11-03T14:59:10.400Z,5.80
2018-11-03T15:02:14.681Z,5.76
2018-11-03T15:05:30.570Z,5.66
2018-11-03T15:08:54.162Z,5.59
2018-11-03T15:12:17.885Z,5.51
2018-11-03T15:15:34.203Z,5.40
2018-11-03T15:18:50.898Z,5.31
2018-11-03T15:22:07.259Z,5.22
2018-11-03T15:25:23.318Z,5.19
2018-11-03T15:28:39.680Z,5.10
2018-11-03T15:31:55.655Z,5.10
2018-11-03T15:35:00.803Z,5.12
2018-11-03T15:38:24.486Z,5.08
2018-11-03T15:41:48.325Z,4.95
2018-11-03T15:45:30.626Z,4.82
2018-11-03T15:48:47.466Z,4.80
2018-11-03T15:51:59.386Z,4.69
2018-11-03T15:55:23.119Z,4.62
2018-11-03T15:58:39.645Z,4.51
2018-11-03T16:01:55.401Z,4.50
2018-11-03T16:05:12.345Z,4.59
2018-11-03T16:08:28.733Z,4.64
2018-11-03T16:11:45.281Z,4.61
2018-11-03T16:15:01.262Z,4.86
2018-11-03T16:18:06.226Z,4.66
2018-11-03T16:21:42.030Z,4.57
2018-11-03T16:24:45.913Z,4.45
2018-11-03T16:28:01.713Z,4.36
2018-11-03T16:31:17.390Z,4.33
2018-11-03T16:34:33.166Z,4.35
2018-11-03T16:37:49.276Z,4.28
2018-11-03T16:41:05.335Z,4.41
2018-11-03T16:44:21.250Z,4.30
2018-11-03T16:47:26.143Z,4.44
2018-11-03T16:50:30.896Z,4.28
2018-11-03T16:53:54.801Z,4.32
2018-11-03T16:57:18.573Z,4.42
2018-11-03T17:00:23.451Z,4.34
2018-11-03T17:04:01.512Z,4.28
2018-11-03T17:07:04.496Z,4.27
2018-11-03T17:10:11.827Z,4.39
2018-11-03T17:13:16.686Z,4.32
2018-11-03T17:16:40.751Z,4.39
2018-11-03T17:19:57.224Z,4.29
2018-11-03T17:23:13.375Z,4.34
2018-11-03T17:26:29.908Z,4.29
2018-11-03T17:29:46.354Z,4.36
2018-11-03T17:33:02.201Z,4.27
2018-11-03T17:36:18.461Z,4.16
2018-11-03T17:39:34.483Z,4.12
2018-11-03T17:42:39.673Z,4.24
2018-11-03T17:46:03.632Z,4.31
2018-11-03T17:49:27.434Z,4.43
2018-11-03T17:52:43.393Z,4.63
2018-11-03T17:56:00.008Z,4.60
2018-11-03T17:59:15.842Z,4.63
2018-11-03T18:02:32.022Z,4.84
2018-11-03T18:05:48.692Z,4.82
2018-11-03T18:09:05.697Z,4.77
2018-11-03T18:12:21.642Z,4.82
2018-11-03T18:15:37.337Z,4.92
2018-11-03T18:18:53.171Z,5.16
2018-11-03T18:22:09.792Z,5.36
2018-11-03T18:25:25.650Z,5.62
2018-11-03T18:28:42.097Z,5.82
2018-11-03T18:31:57.801Z,5.97
2018-11-03T18:35:13.485Z,5.93
2018-11-03T18:38:29.803Z,5.90
2018-11-03T18:41:46.647Z,6.05
2018-11-03T18:45:02.668Z,5.95
2018-11-03T18:48:18.359Z,5.89
2018-11-03T18:51:34.258Z,5.99
2018-11-03T18:54:50.900Z,6.04
2018-11-03T18:58:06.855Z,5.83
2018-11-03T19:01:22.665Z,5.81
2018-11-03T19:04:39.249Z,5.79
2018-11-03T19:07:55.308Z,5.74
2018-11-03T19:11:11.448Z,5.50
2018-11-03T19:14:27.911Z,5.15
2018-11-03T19:17:43.766Z,5.31
2018-11-03T19:20:59.854Z,5.18
2018-11-03T19:24:15.841Z,4.98
2018-11-03T19:27:31.841Z,4.79
2018-11-03T19:30:48.255Z,4.57
2018-11-03T19:34:04.152Z,4.74
2018-11-03T19:37:09.092Z,4.83
2018-11-03T19:40:44.594Z,4.52
2018-11-03T19:43:49.149Z,4.65
2018-11-03T19:47:05.709Z,4.54
2018-11-03T19:50:21.431Z,4.36
2018-11-03T19:53:37.745Z,4.57
2018-11-03T19:56:54.198Z,4.43
2018-11-03T20:00:10.084Z,4.58
2018-11-03T20:03:25.987Z,4.57
2018-11-03T20:06:42.436Z,4.67
2018-11-03T20:09:58.903Z,4.71
2018-11-03T20:13:15.443Z,4.43
2018-11-03T20:16:31.825Z,4.28
2018-11-03T20:19:47.777Z,4.17
2018-11-03T20:23:03.548Z,4.33
2018-11-03T20:26:19.527Z,4.46
2018-11-03T20:29:35.224Z,4.56
2018-11-03T20:32:50.977Z,4.65
2018-11-03T20:36:06.744Z,4.80
2018-11-03T20:39:22.402Z,4.54
2018-11-03T20:42:38.300Z,4.78
2018-11-03T20:45:55.046Z,4.73
2018-11-03T20:49:10.719Z,4.79
2018-11-03T20:52:27.430Z,4.65
2018-11-03T20:55:44.031Z,4.64
2018-11-03T20:59:00.081Z,4.50
2018-11-03T21:02:16.157Z,4.28
2018-11-03T21:05:32.169Z,4.33
2018-11-03T21:08:48.141Z,4.12
2018-11-03T21:12:04.005Z,4.06
2018-11-03T21:15:19.682Z,3.99
2018-11-03T21:18:35.373Z,3.90
2018-11-03T21:21:51.199Z,3.93
2018-11-03T21:25:07.906Z,3.79
2018-11-03T21:28:23.694Z,3.69
2018-11-03T21:31:39.657Z,3.62
2018-11-03T21:34:55.614Z,3.89
2018-11-03T21:38:14.915Z,3.62
2018-11-03T21:41:31.313Z,3.56
2018-11-03T21:44:47.014Z,3.52
2018-11-03T21:48:03.432Z,3.42
2018-11-03T21:51:19.315Z,3.32
2018-11-03T21:54:35.606Z,3.31
2018-11-03T21:57:52.283Z,3.63
2018-11-03T22:01:08.915Z,3.65
2018-11-03T22:04:24.814Z,3.63
2018-11-03T22:07:41.155Z,3.52
2018-11-03T22:10:57.603Z,3.57
2018-11-03T22:14:14.137Z,3.68
2018-11-03T22:17:30.106Z,3.64
2018-11-03T22:20:45.994Z,3.69
2018-11-03T22:24:04.824Z,3.69
2018-11-03T22:27:24.149Z,3.83
2018-11-03T22:30:40.209Z,3.74
2018-11-03T22:33:56.939Z,3.87
2018-11-03T22:37:01.990Z,3.67
2018-11-03T22:40:37.578Z,3.58
2018-11-03T22:43:49.670Z,3.74
2018-11-03T22:47:05.404Z,3.62
2018-11-03T22:50:22.137Z,3.67
2018-11-03T22:53:37.884Z,3.70
2018-11-03T22:56:54.465Z,3.52
2018-11-03T23:00:14.495Z,3.65
2018-11-03T23:03:19.426Z,3.65
2018-11-03T23:06:43.179Z,3.52
2018-11-03T23:10:20.871Z,3.42
2018-11-03T23:13:23.700Z,3.20
2018-11-03T23:16:39.518Z,3.38
2018-11-03T23:19:55.261Z,3.47
2018-11-03T23:23:11.687Z,3.38
2018-11-03T23:26:16.537Z,3.29
2018-11-03T23:29:40.290Z,3.58
2018-11-03T23:33:04.020Z,3.48
2018-11-03T23:36:20.456Z,3.49
2018-11-03T23:39:36.417Z,3.77
2018-11-03T23:42:52.249Z,3.65
2018-11-03T23:46:08.110Z,3.63
2018-11-03T23:49:24.445Z,4.26
2018-11-03T23:52:47.247Z,4.59
2018-11-03T23:56:03.892Z,4.61
2018-11-03T23:59:20.460Z,4.58
